Flight EZE53C

  • Submitted By: Dave Hardy
  • Departure Airport: Newcastle International (EGNT)
  • Arrival Airport: Isle Of Man / Ronaldsway (EGNS)
  • Aircraft: JS41 (G-MAJA)
  • Flight Time: 00.44
  • Date Submitted: 02/14/2009
  • Status: Accepted
Flight Details
Gross Revenue:
(15 load / £ 0.00 per unit
£ 0.00
Fuel Cost:
(844 fuel used @ 0 / unit)
£ 0.00

Flight Details

  • VATAWARE Link: -

Additional Log Information:

View Log

[2009/02/14 09:29:00]
Flight IATA:EZE53C
Pilot Number:EZE0001
Company ICAO:EZE
Aircraft Type:JS41
PAX:15
Aircraft Registration:JS41
Departing Airport: EGNT
Destination Airport: EGNS
Online: VATSIM
Route:DCS W911 IOM
Flight Level:18000
09:29 Zero fuel Weight: 17980 Lbs, Fuel Weight: 5798 Lbs
09:29 VATSIM:EGNT 141320Z VRB03KT 9999 SCT016 05/01 Q1026
09:29 VATSIM:EGNS 141320Z 10003KT 4500 BR FEW005 OVC006 07/05 Q1027 NOSIG
09:41 Parking Brakes off
09:41 Com1 Freq=135.52
09:46 VR= 129 Knots
09:46 V2= 136 Knots
09:46 Take-off
09:46 Take off Weight: 23732 Lbs
09:46 Wind: 251 @ 003 Knots Heading: 244
09:46 POS N55 02 06 W001 42 02
09:46 N11 36 N12 36
09:46 Gear Up: 137 Knots
09:46 Flaps: at 137 Knots
09:55 Flaps: at 153 Knots
09:57 TOC
09:57 Fuel Weight: 5358 Lb
09:58 TOD
09:58 Fuel Weight: 5335 Lb
09:58 TOC
09:58 Fuel Weight: 5325 Lb
10:01 Wind:287@014 Knots Heading: 251 Ground Speed: 288 Knots Altitude 18395 ft
10:05 Com1 Freq=133.52
10:05 Com1 Freq=130.52
10:05 Com1 Freq=125.52
10:05 Com1 Freq=119.52
10:05 Com1 Freq=118.52
10:05 Com1 Freq=118.55
10:05 Com1 Freq=118.72
10:05 Com1 Freq=118.82
10:05 Com1 Freq=118.90
10:06 TOD
10:06 Fuel Weight: 5117 Lb
10:15 Flaps: at 176 Knots
10:16 Wind:097@003 Knots Heading: 222 Ground Speed: 161 Knots Altitude 2001 ft
10:16 Gear Down: 156 Knots
10:16 Flaps: at 152 Knots
10:20 TouchDown:Rate -772 ft/min Speed: 132 Knots
10:20 VATSIM:EGNS 141450Z 24007KT 6000 BR FEW003 BKN005 BKN008 08/06 Q1027 NOSIG
10:20 Land
10:20 Wind:097@003 Knots
10:20 Heading: 258
10:20 Flight Duration: 00:34
10:20 Landing Weight: 22959 Lbs
10:20 POS N54 04 59 W004 37 25
10:25 Parking brakes on
10:25 Block to Block Duration: 00:44
10:25 Final Fuel: 4953 Lbls
10:25 SpentFuel: 844 Lbls
10:25 Flight Length: 116 NM
10:25 TOD Land Length: 45 NM

Route Map